createdAt,value
2023-03-23T15:58:31.149Z,45.82
2023-03-23T16:01:03.503Z,45.88
2023-03-23T16:03:43.730Z,45.85
2023-03-23T16:06:13.486Z,46.09
2023-03-23T16:08:55.224Z,46.30
2023-03-23T16:11:26.801Z,46.57
2023-03-23T16:13:55.782Z,46.38
2023-03-23T16:16:27.186Z,46.21
2023-03-23T16:18:55.953Z,46.39
2023-03-23T16:21:24.398Z,46.36
2023-03-23T16:23:52.839Z,46.34
2023-03-23T16:26:21.208Z,46.42
2023-03-23T16:28:50.513Z,46.53
2023-03-23T16:31:18.794Z,46.82
2023-03-23T16:33:47.224Z,47.31
2023-03-23T16:36:15.659Z,47.76
2023-03-23T16:38:49.919Z,47.90
2023-03-23T16:41:19.817Z,48.06
2023-03-23T16:43:48.071Z,48.20
2023-03-23T16:46:16.273Z,48.18
2023-03-23T16:48:44.620Z,48.45
2023-03-23T16:51:12.857Z,49.90
2023-03-23T16:53:41.124Z,51.00
2023-03-23T16:56:09.415Z,51.01
2023-03-23T16:58:37.644Z,50.66
2023-03-23T17:01:06.104Z,50.26
2023-03-23T17:03:34.622Z,49.99
2023-03-23T17:06:04.551Z,49.75
2023-03-23T17:08:32.894Z,49.70
2023-03-23T17:11:01.570Z,49.54
2023-03-23T17:13:29.806Z,49.49
2023-03-23T17:15:58.109Z,49.71
2023-03-23T17:18:28.658Z,49.71
2023-03-23T17:20:57.194Z,49.98
2023-03-23T17:23:25.623Z,50.52
2023-03-23T17:25:54.186Z,50.61
2023-03-23T17:28:22.452Z,51.21
2023-03-23T17:30:52.359Z,52.28
2023-03-23T17:33:20.948Z,52.89
2023-03-23T17:35:52.125Z,53.57
2023-03-23T17:38:21.031Z,53.77
2023-03-23T17:40:56.977Z,53.54
2023-03-23T17:43:25.470Z,53.84
2023-03-23T17:45:54.032Z,54.80
2023-03-23T17:48:23.397Z,55.33
2023-03-23T17:50:55.009Z,55.63
2023-03-23T17:53:25.604Z,55.99
2023-03-23T17:55:53.928Z,55.99
2023-03-23T17:58:22.501Z,57.09
2023-03-23T18:00:50.897Z,58.28
2023-03-23T18:03:25.928Z,58.92
2023-03-23T18:06:03.261Z,59.12
2023-03-23T18:08:32.096Z,59.76
2023-03-23T18:11:01.386Z,60.07
2023-03-23T18:13:34.085Z,60.31
2023-03-23T18:16:03.892Z,60.86
2023-03-23T18:18:33.313Z,61.83
2023-03-23T18:21:04.696Z,62.28
2023-03-23T18:23:38.932Z,62.24
2023-03-23T18:26:11.844Z,63.34
2023-03-23T18:28:40.697Z,63.99
2023-03-23T18:31:15.328Z,64.17
2023-03-23T18:33:46.866Z,64.20
2023-03-23T18:36:17.839Z,63.26
2023-03-23T18:38:47.312Z,63.97
2023-03-23T18:41:16.892Z,64.05
2023-03-23T18:43:46.114Z,63.05
2023-03-23T18:46:14.608Z,62.45
2023-03-23T18:48:42.958Z,61.98
2023-03-23T18:51:11.932Z,62.90
2023-03-23T18:53:40.964Z,63.48
2023-03-23T18:56:12.282Z,63.23
2023-03-23T18:58:40.524Z,62.44
2023-03-23T19:01:11.846Z,61.26
2023-03-23T19:03:40.900Z,61.53
2023-03-23T19:06:22.597Z,61.07
2023-03-23T19:08:52.241Z,61.30
2023-03-23T19:11:22.636Z,61.59
2023-03-23T19:14:01.598Z,61.39
2023-03-23T19:16:35.677Z,61.12
2023-03-23T19:19:06.648Z,61.05
2023-03-23T19:21:35.661Z,60.86
2023-03-23T19:24:04.139Z,60.15
2023-03-23T19:26:38.320Z,60.17
2023-03-23T19:29:26.096Z,60.00
2023-03-23T19:31:56.650Z,58.74
2023-03-23T19:34:26.785Z,58.09
2023-03-23T19:37:03.264Z,57.52
2023-03-23T19:39:34.753Z,57.11
2023-03-23T19:42:04.459Z,56.62
2023-03-23T19:44:34.483Z,56.47
2023-03-23T19:47:03.397Z,56.42
2023-03-23T19:49:31.749Z,55.99
2023-03-23T19:52:09.369Z,55.43
2023-03-23T19:54:41.071Z,55.24
2023-03-23T19:57:10.611Z,54.80
2023-03-23T19:59:39.487Z,54.56
2023-03-23T20:02:10.784Z,54.44
2023-03-23T20:04:39.932Z,54.38
2023-03-23T20:07:08.546Z,54.20
2023-03-23T20:09:38.259Z,54.07
2023-03-23T20:12:07.184Z,53.95
2023-03-23T20:14:37.418Z,53.86
2023-03-23T20:17:09.745Z,53.82
2023-03-23T20:19:38.398Z,53.80
2023-03-23T20:22:06.782Z,53.51
2023-03-23T20:24:35.040Z,53.57
2023-03-23T20:27:04.009Z,53.44
2023-03-23T20:29:33.540Z,53.26
2023-03-23T20:32:01.904Z,53.33
2023-03-23T20:34:31.692Z,53.39
2023-03-23T20:37:01.854Z,53.28
2023-03-23T20:39:32.954Z,53.40
2023-03-23T20:42:03.415Z,53.52
2023-03-23T20:44:35.453Z,53.35
2023-03-23T20:47:04.745Z,53.55
2023-03-23T20:49:37.092Z,53.73
2023-03-23T20:52:08.255Z,53.60
2023-03-23T20:54:38.006Z,53.75
2023-03-23T20:57:08.203Z,53.92
2023-03-23T20:59:36.831Z,53.84
2023-03-23T21:02:05.544Z,53.91
2023-03-23T21:04:33.818Z,54.00
2023-03-23T21:07:02.335Z,54.04
2023-03-23T21:09:31.127Z,54.22
2023-03-23T21:11:59.495Z,54.30
2023-03-23T21:14:27.865Z,54.16
2023-03-23T21:16:58.404Z,54.24
2023-03-23T21:19:27.904Z,54.16
2023-03-23T21:21:57.336Z,54.26
2023-03-23T21:24:28.301Z,54.30
2023-03-23T21:26:59.889Z,54.20
2023-03-23T21:29:28.528Z,54.13
2023-03-23T21:34:28.714Z,54.04
2023-03-23T21:36:56.981Z,54.11
2023-03-23T21:39:26.264Z,54.09
2023-03-23T21:41:54.694Z,53.99
2023-03-23T21:44:23.033Z,54.12
2023-03-23T21:46:52.437Z,53.88
2023-03-23T21:49:20.796Z,54.08
2023-03-23T21:51:50.124Z,53.84
2023-03-23T21:54:18.445Z,53.87
2023-03-23T21:56:47.508Z,53.87
2023-03-23T21:59:16.579Z,54.05
2023-03-23T22:01:44.762Z,54.00
2023-03-23T22:04:13.007Z,53.99
2023-03-23T22:06:42.467Z,54.23
2023-03-23T22:09:11.431Z,54.38
2023-03-23T22:11:40.441Z,54.54
2023-03-23T22:14:08.848Z,54.52
2023-03-23T22:16:37.249Z,54.64
2023-03-23T22:19:06.640Z,54.63
2023-03-23T22:21:35.060Z,54.87
2023-03-23T22:24:03.843Z,55.06
2023-03-23T22:26:32.151Z,55.34
2023-03-23T22:29:01.375Z,55.34
2023-03-23T22:31:33.906Z,55.55
2023-03-23T22:34:02.960Z,55.47
2023-03-23T22:36:33.483Z,55.68
2023-03-23T22:39:03.506Z,55.80
2023-03-23T22:41:35.533Z,55.84
2023-03-23T22:44:12.594Z,55.93
2023-03-23T22:46:41.381Z,56.05
2023-03-23T22:49:10.044Z,56.06
2023-03-23T22:51:38.820Z,56.15
2023-03-23T22:54:07.248Z,56.35
2023-03-23T22:56:37.222Z,56.32
2023-03-23T22:59:07.247Z,56.51
2023-03-23T23:01:36.305Z,56.82
2023-03-23T23:04:05.128Z,56.94
2023-03-23T23:06:33.555Z,57.31
2023-03-23T23:09:01.866Z,57.27
2023-03-23T23:11:31.243Z,57.17
2023-03-23T23:13:59.573Z,57.19
2023-03-23T23:16:28.080Z,57.08
2023-03-23T23:18:56.658Z,57.35
2023-03-23T23:21:29.016Z,57.52
2023-03-23T23:23:58.029Z,57.76
2023-03-23T23:26:27.000Z,57.70
2023-03-23T23:28:55.360Z,57.75
2023-03-23T23:31:29.185Z,57.71
2023-03-23T23:34:00.346Z,58.15
2023-03-23T23:36:31.970Z,58.08
2023-03-23T23:39:02.331Z,57.89
2023-03-23T23:41:31.113Z,57.61
2023-03-23T23:44:00.165Z,57.54
2023-03-23T23:46:30.781Z,57.59
2023-03-23T23:49:00.000Z,57.66
2023-03-23T23:51:29.580Z,57.41
2023-03-23T23:53:58.959Z,57.61
2023-03-23T23:56:28.611Z,57.50
2023-03-23T23:58:58.339Z,57.79
